Погода Кхиксашна неделю

Окаванго, Намибия

02 - 08 марта
  • 02марта
    Сегодня
    +20°
    +37°
    Ясно и безоблачно
    ВремяПогодаТемператураВлажностьДавлениеВетер, м/сВероятность осадков
    02:00Практически безоблачно+23°C57 %676 мм2.6 м/с2 %
    05:00Ясно и безоблачно+21°C65 %676 мм1.0 м/с5 %
    08:00Ясно и безоблачно+22°C63 %677 мм1.2 м/с5 %
    11:00Ясно и безоблачно+29°C36 %678 мм3.0 м/с1 %
    14:00Ясно и безоблачно+35°C22 %678 мм4.3 м/с5 %
    17:00Практически безоблачно+36°C21 %676 мм4.4 м/с2 %
    20:00Ясно и безоблачно+29°C35 %677 мм6.6 м/с4 %
    23:00Ясно и безоблачно+25°C41 %677 мм3.3 м/с4 %
  • 03марта
    Воскресенье
    +19°
    +37°
    Ясно и безоблачно
    ВремяПогодаТемператураВлажностьДавлениеВетер, м/сВероятность осадков
    02:00Ясно и безоблачно+22°C48 %676 мм1.1 м/с2 %
    05:00Ясно и безоблачно+21°C57 %675 мм0.6 м/с5 %
    08:00Ясно и безоблачно+22°C48 %676 мм1.6 м/с5 %
    11:00Ясно и безоблачно+31°C27 %678 мм3.1 м/с2 %
    14:00Ясно и безоблачно+37°C17 %677 мм3.7 м/с5 %
    17:00Ясно и безоблачно+35°C18 %675 мм6.7 м/с5 %
    20:00Ясно и безоблачно+28°C32 %675 мм6.7 м/с5 %
    23:00Ясно и безоблачно+22°C48 %676 мм3.0 м/с5 %
  • 04марта
    Понедельник
    +16°
    +36°
    Ясно и безоблачно
    ВремяПогодаТемператураВлажностьДавлениеВетер, м/сВероятность осадков
    02:00Ясно и безоблачно+21°C50 %675 мм1.1 м/с5 %
    05:00Ясно и безоблачно+21°C43 %674 мм0.2 м/с5 %
    08:00Ясно и безоблачно+21°C38 %675 мм0.9 м/с5 %
    11:00Ясно и безоблачно+29°C21 %677 мм3.3 м/с5 %
    14:00Ясно и безоблачно+35°C18 %676 мм5.5 м/с5 %
    17:00Ясно и безоблачно+34°C19 %675 мм7.5 м/с5 %
    20:00Ясно и безоблачно+27°C28 %675 мм6.1 м/с5 %
    23:00Ясно и безоблачно+23°C36 %675 мм3.3 м/с5 %
  • 05марта
    Вторник
    +15°
    +33°
    Ясно и безоблачно
    ВремяПогодаТемператураВлажностьДавлениеВетер, м/сВероятность осадков
    02:00Ясно и безоблачно+20°C45 %674 мм1.7 м/с5 %
    05:00Ясно и безоблачно+18°C52 %674 мм2.5 м/с5 %
    08:00Ясно и безоблачно+18°C54 %675 мм0.7 м/с5 %
    11:00Ясно и безоблачно+26°C24 %677 мм2.5 м/с5 %
    14:00Ясно и безоблачно+32°C15 %676 мм4.8 м/с5 %
    17:00Ясно и безоблачно+33°C16 %675 мм7.7 м/с5 %
    20:00Ясно и безоблачно+26°C29 %675 мм6.2 м/с5 %
    23:00Ясно и безоблачно+22°C40 %676 мм2.3 м/с5 %
  • 06марта
    Среда
    +14°
    +35°
    Ясно и безоблачно
    ВремяПогодаТемператураВлажностьДавлениеВетер, м/сВероятность осадков
    02:00Ясно и безоблачно+18°C51 %675 мм1.0 м/с5 %
    05:00Ясно и безоблачно+16°C57 %673 мм1.6 м/с5 %
    08:00Ясно и безоблачно+18°C50 %675 мм0.7 м/с5 %
    11:00Ясно и безоблачно+26°C18 %677 мм1.0 м/с5 %
    14:00Ясно и безоблачно+33°C13 %677 мм4.3 м/с5 %
    17:00Ясно и безоблачно+33°C13 %676 мм7.6 м/с5 %
    20:00Ясно и безоблачно+25°C24 %676 мм6.5 м/с5 %
    23:00Ясно и безоблачно+19°C49 %677 мм2.1 м/с5 %
Мы используем cookies
Соглашаюсь